sensor_id;sensor_type;location;lat;lon;timestamp;pressure;altitude;pressure_sealevel;temperature;humidity
20228;BME280;12195;55.790;37.572;2024-02-21T00:00:21;100661.47;;;-6.09;70.37
20228;BME280;12195;55.790;37.572;2024-02-21T00:02:54;100656.31;;;-6.12;70.47
20228;BME280;12195;55.790;37.572;2024-02-21T00:05:28;100651.89;;;-6.18;70.52
20228;BME280;12195;55.790;37.572;2024-02-21T00:08:00;100654.41;;;-6.19;70.62
20228;BME280;12195;55.790;37.572;2024-02-21T00:10:33;100648.36;;;-6.23;70.70
20228;BME280;12195;55.790;37.572;2024-02-21T00:13:06;100644.03;;;-6.25;70.71
20228;BME280;12195;55.790;37.572;2024-02-21T00:15:39;100647.33;;;-6.29;70.77
20228;BME280;12195;55.790;37.572;2024-02-21T00:18:11;100643.86;;;-6.31;70.74
20228;BME280;12195;55.790;37.572;2024-02-21T00:20:43;100634.42;;;-6.34;70.86
20228;BME280;12195;55.790;37.572;2024-02-21T00:23:16;100640.36;;;-6.35;70.94
20228;BME280;12195;55.790;37.572;2024-02-21T00:25:48;100639.53;;;-6.34;70.96
20228;BME280;12195;55.790;37.572;2024-02-21T00:28:21;100641.99;;;-6.37;70.87
20228;BME280;12195;55.790;37.572;2024-02-21T00:30:54;100639.44;;;-6.37;71.02
20228;BME280;12195;55.790;37.572;2024-02-21T00:33:27;100642.04;;;-6.35;71.12
20228;BME280;12195;55.790;37.572;2024-02-21T00:35:59;100634.47;;;-6.32;71.10
20228;BME280;12195;55.790;37.572;2024-02-21T00:38:32;100641.30;;;-6.31;71.17
20228;BME280;12195;55.790;37.572;2024-02-21T00:41:04;100631.91;;;-6.32;71.17
20228;BME280;12195;55.790;37.572;2024-02-21T00:43:36;100636.19;;;-6.31;71.18
20228;BME280;12195;55.790;37.572;2024-02-21T00:46:09;100626.02;;;-6.30;71.12
20228;BME280;12195;55.790;37.572;2024-02-21T00:48:41;100628.48;;;-6.33;71.18
20228;BME280;12195;55.790;37.572;2024-02-21T00:51:14;100621.66;;;-6.34;71.25
20228;BME280;12195;55.790;37.572;2024-02-21T00:53:46;100615.80;;;-6.30;71.52
20228;BME280;12195;55.790;37.572;2024-02-21T00:56:18;100605.03;;;-6.18;71.43
20228;BME280;12195;55.790;37.572;2024-02-21T00:58:51;100609.48;;;-6.11;71.70
20228;BME280;12195;55.790;37.572;2024-02-21T01:01:25;100607.20;;;-6.01;71.73
20228;BME280;12195;55.790;37.572;2024-02-21T01:03:57;100606.53;;;-5.93;71.78
20228;BME280;12195;55.790;37.572;2024-02-21T01:06:29;100599.19;;;-5.80;71.68
20228;BME280;12195;55.790;37.572;2024-02-21T01:09:02;100592.48;;;-5.75;71.48
20228;BME280;12195;55.790;37.572;2024-02-21T01:11:34;100602.05;;;-5.67;71.44
20228;BME280;12195;55.790;37.572;2024-02-21T01:14:07;100591.02;;;-5.64;71.38
20228;BME280;12195;55.790;37.572;2024-02-21T01:16:39;100586.03;;;-5.59;71.47
20228;BME280;12195;55.790;37.572;2024-02-21T01:19:12;100581.03;;;-5.55;71.34
20228;BME280;12195;55.790;37.572;2024-02-21T01:21:44;100581.16;;;-5.49;71.25
20228;BME280;12195;55.790;37.572;2024-02-21T01:24:16;100582.96;;;-5.45;71.30
20228;BME280;12195;55.790;37.572;2024-02-21T01:26:49;100576.28;;;-5.38;71.33
20228;BME280;12195;55.790;37.572;2024-02-21T01:29:21;100578.12;;;-5.33;71.29
20228;BME280;12195;55.790;37.572;2024-02-21T01:31:53;100580.04;;;-5.23;71.12
20228;BME280;12195;55.790;37.572;2024-02-21T01:34:27;100574.20;;;-5.17;71.12
20228;BME280;12195;55.790;37.572;2024-02-21T01:37:00;100573.39;;;-5.15;71.01
20228;BME280;12195;55.790;37.572;2024-02-21T01:39:34;100571.82;;;-5.10;71.03
20228;BME280;12195;55.790;37.572;2024-02-21T01:42:06;100562.50;;;-5.06;70.82
20228;BME280;12195;55.790;37.572;2024-02-21T01:44:40;100566.86;;;-5.02;70.84
20228;BME280;12195;55.790;37.572;2024-02-21T01:47:14;100566.97;;;-4.98;70.84
20228;BME280;12195;55.790;37.572;2024-02-21T01:49:46;100564.44;;;-4.95;70.80
20228;BME280;12195;55.790;37.572;2024-02-21T01:52:19;100565.64;;;-4.78;70.99
20228;BME280;12195;55.790;37.572;2024-02-21T01:54:53;100566.41;;;-4.82;70.59
20228;BME280;12195;55.790;37.572;2024-02-21T01:57:26;100565.64;;;-4.79;70.57
20228;BME280;12195;55.790;37.572;2024-02-21T02:00:00;100552.03;;;-4.77;70.55
20228;BME280;12195;55.790;37.572;2024-02-21T02:02:35;100555.47;;;-4.75;70.50
20228;BME280;12195;55.790;37.572;2024-02-21T02:05:08;100549.54;;;-4.72;70.36
20228;BME280;12195;55.790;37.572;2024-02-21T02:07:41;100556.45;;;-4.68;70.24
20228;BME280;12195;55.790;37.572;2024-02-21T02:10:13;100545.42;;;-4.64;70.30
20228;BME280;12195;55.790;37.572;2024-02-21T02:12:46;100548.87;;;-4.64;70.12
20228;BME280;12195;55.790;37.572;2024-02-21T02:15:19;100540.34;;;-4.63;70.12
20228;BME280;12195;55.790;37.572;2024-02-21T02:17:51;100544.66;;;-4.60;70.13
20228;BME280;12195;55.790;37.572;2024-02-21T02:20:24;100540.47;;;-4.57;70.09
20228;BME280;12195;55.790;37.572;2024-02-21T02:22:57;100539.66;;;-4.54;70.01
20228;BME280;12195;55.790;37.572;2024-02-21T02:25:30;100544.82;;;-4.53;69.95
20228;BME280;12195;55.790;37.572;2024-02-21T02:28:04;100542.25;;;-4.51;69.83
20228;BME280;12195;55.790;37.572;2024-02-21T02:30:36;100547.41;;;-4.50;69.84
20228;BME280;12195;55.790;37.572;2024-02-21T02:33:09;100550.01;;;-4.48;69.88
20228;BME280;12195;55.790;37.572;2024-02-21T02:35:42;100550.92;;;-4.46;69.78
20228;BME280;12195;55.790;37.572;2024-02-21T02:38:14;100546.67;;;-4.44;69.88
20228;BME280;12195;55.790;37.572;2024-02-21T02:40:47;100540.73;;;-4.42;69.77
20228;BME280;12195;55.790;37.572;2024-02-21T02:43:20;100542.48;;;-4.39;69.78
20228;BME280;12195;55.790;37.572;2024-02-21T02:45:52;100533.98;;;-4.37;69.66
20228;BME280;12195;55.790;37.572;2024-02-21T02:48:24;100540.86;;;-4.36;69.66
20228;BME280;12195;55.790;37.572;2024-02-21T02:50:57;100539.17;;;-4.34;69.63
20228;BME280;12195;55.790;37.572;2024-02-21T02:53:29;100536.67;;;-4.31;69.63
20228;BME280;12195;55.790;37.572;2024-02-21T02:56:02;100547.86;;;-4.26;69.54
20228;BME280;12195;55.790;37.572;2024-02-21T02:58:34;100532.55;;;-4.23;69.48
20228;BME280;12195;55.790;37.572;2024-02-21T03:01:07;100530.89;;;-4.19;69.37
20228;BME280;12195;55.790;37.572;2024-02-21T03:03:40;100539.52;;;-4.16;69.37
20228;BME280;12195;55.790;37.572;2024-02-21T03:06:13;100539.55;;;-4.13;69.38
20228;BME280;12195;55.790;37.572;2024-02-21T03:08:47;100537.12;;;-4.04;69.35
20228;BME280;12195;55.790;37.572;2024-02-21T03:11:20;100537.09;;;-4.07;69.21
20228;BME280;12195;55.790;37.572;2024-02-21T03:13:55;100540.50;;;-4.06;69.24
20228;BME280;12195;55.790;37.572;2024-02-21T03:16:30;100539.75;;;-4.01;68.97
20228;BME280;12195;55.790;37.572;2024-02-21T03:19:03;100540.59;;;-4.02;69.07
20228;BME280;12195;55.790;37.572;2024-02-21T03:21:36;100538.03;;;-4.02;69.16
20228;BME280;12195;55.790;37.572;2024-02-21T03:24:08;100534.66;;;-3.99;69.04
20228;BME280;12195;55.790;37.572;2024-02-21T03:26:41;100528.67;;;-3.98;69.04
20228;BME280;12195;55.790;37.572;2024-02-21T03:29:15;100527.86;;;-3.96;69.06
20228;BME280;12195;55.790;37.572;2024-02-21T03:31:48;100529.61;;;-3.95;69.06
20228;BME280;12195;55.790;37.572;2024-02-21T03:34:20;100533.92;;;-3.92;69.08
20228;BME280;12195;55.790;37.572;2024-02-21T03:36:55;100529.64;;;-3.93;69.01
20228;BME280;12195;55.790;37.572;2024-02-21T03:39:32;100529.63;;;-3.92;68.95
20228;BME280;12195;55.790;37.572;2024-02-21T03:42:06;100528.82;;;-3.91;68.87
20228;BME280;12195;55.790;37.572;2024-02-21T03:44:38;100527.98;;;-3.90;68.96
20228;BME280;12195;55.790;37.572;2024-02-21T03:47:11;100522.00;;;-3.89;68.98
20228;BME280;12195;55.790;37.572;2024-02-21T03:49:43;100531.41;;;-3.88;69.04
20228;BME280;12195;55.790;37.572;2024-02-21T03:52:17;100524.59;;;-3.87;68.99
20228;BME280;12195;55.790;37.572;2024-02-21T03:54:49;100529.78;;;-3.84;68.91
20228;BME280;12195;55.790;37.572;2024-02-21T03:57:24;100527.24;;;-3.83;68.92
20228;BME280;12195;55.790;37.572;2024-02-21T03:59:59;100522.11;;;-3.81;68.96
20228;BME280;12195;55.790;37.572;2024-02-21T04:02:34;100518.78;;;-3.76;68.88
20228;BME280;12195;55.790;37.572;2024-02-21T04:05:08;100523.09;;;-3.75;68.92
20228;BME280;12195;55.790;37.572;2024-02-21T04:07:43;100524.81;;;-3.74;68.99
20228;BME280;12195;55.790;37.572;2024-02-21T04:10:17;100523.97;;;-3.73;68.91
20228;BME280;12195;55.790;37.572;2024-02-21T04:12:50;100529.99;;;-3.69;68.82
20228;BME280;12195;55.790;37.572;2024-02-21T04:15:23;100532.56;;;-3.71;68.71
20228;BME280;12195;55.790;37.572;2024-02-21T04:17:56;100526.55;;;-3.71;68.81
20228;BME280;12195;55.790;37.572;2024-02-21T04:20:31;100536.91;;;-3.67;68.81
20228;BME280;12195;55.790;37.572;2024-02-21T04:23:04;100531.80;;;-3.64;68.66
20228;BME280;12195;55.790;37.572;2024-02-21T04:25:38;100530.15;;;-3.59;68.63
20228;BME280;12195;55.790;37.572;2024-02-21T04:28:11;100531.91;;;-3.58;68.75
20228;BME280;12195;55.790;37.572;2024-02-21T04:30:44;100531.92;;;-3.55;68.59
20228;BME280;12195;55.790;37.572;2024-02-21T04:33:17;100531.97;;;-3.52;68.51
20228;BME280;12195;55.790;37.572;2024-02-21T04:35:50;100534.59;;;-3.49;68.56
20228;BME280;12195;55.790;37.572;2024-02-21T04:38:25;100530.31;;;-3.50;68.64
20228;BME280;12195;55.790;37.572;2024-02-21T04:40:58;100528.56;;;-3.51;68.63
20228;BME280;12195;55.790;37.572;2024-02-21T04:43:33;100527.77;;;-3.48;68.63
20228;BME280;12195;55.790;37.572;2024-02-21T04:46:10;100522.64;;;-3.48;68.68
20228;BME280;12195;55.790;37.572;2024-02-21T04:48:43;100522.63;;;-3.47;68.75
20228;BME280;12195;55.790;37.572;2024-02-21T04:51:16;100533.83;;;-3.43;68.70
20228;BME280;12195;55.790;37.572;2024-02-21T04:53:49;100526.15;;;-3.42;68.72
20228;BME280;12195;55.790;37.572;2024-02-21T04:56:23;100528.72;;;-3.42;68.79
20228;BME280;12195;55.790;37.572;2024-02-21T04:58:56;100527.02;;;-3.40;68.83
20228;BME280;12195;55.790;37.572;2024-02-21T05:01:29;100522.78;;;-3.38;68.88
20228;BME280;12195;55.790;37.572;2024-02-21T05:04:03;100527.11;;;-3.32;68.64
20228;BME280;12195;55.790;37.572;2024-02-21T05:06:41;100520.29;;;-3.32;68.69
20228;BME280;12195;55.790;37.572;2024-02-21T05:09:14;100528.89;;;-3.30;68.68
20228;BME280;12195;55.790;37.572;2024-02-21T05:11:50;100533.17;;;-3.29;68.79
20228;BME280;12195;55.790;37.572;2024-02-21T05:14:23;100526.36;;;-3.25;68.87
20228;BME280;12195;55.790;37.572;2024-02-21T05:16:56;100520.41;;;-3.23;69.04
20228;BME280;12195;55.790;37.572;2024-02-21T05:19:30;100529.92;;;-3.16;69.18
20228;BME280;12195;55.790;37.572;2024-02-21T05:22:08;100531.73;;;-3.09;69.07
20228;BME280;12195;55.790;37.572;2024-02-21T05:24:43;100534.36;;;-3.03;68.93
20228;BME280;12195;55.790;37.572;2024-02-21T05:27:16;100536.17;;;-2.96;68.66
20228;BME280;12195;55.790;37.572;2024-02-21T05:29:50;100540.53;;;-2.90;68.58
20228;BME280;12195;55.790;37.572;2024-02-21T05:32:24;100533.69;;;-2.88;68.73
20228;BME280;12195;55.790;37.572;2024-02-21T05:34:58;100526.03;;;-2.85;68.62
20228;BME280;12195;55.790;37.572;2024-02-21T05:37:32;100524.39;;;-2.79;68.40
20228;BME280;12195;55.790;37.572;2024-02-21T05:40:07;100526.11;;;-2.78;68.42
20228;BME280;12195;55.790;37.572;2024-02-21T05:42:40;100527.87;;;-2.74;68.52
20228;BME280;12195;55.790;37.572;2024-02-21T05:45:16;100526.20;;;-2.69;68.43
20228;BME280;12195;55.790;37.572;2024-02-21T05:47:51;100523.70;;;-2.64;68.29
20228;BME280;12195;55.790;37.572;2024-02-21T05:50:25;100520.32;;;-2.60;68.19
20228;BME280;12195;55.790;37.572;2024-02-21T05:52:59;100528.14;;;-2.50;68.38
20228;BME280;12195;55.790;37.572;2024-02-21T05:55:33;100533.30;;;-2.48;68.11
20228;BME280;12195;55.790;37.572;2024-02-21T05:58:08;100535.94;;;-2.41;67.88
20228;BME280;12195;55.790;37.572;2024-02-21T06:00:47;100529.16;;;-2.36;67.85
20228;BME280;12195;55.790;37.572;2024-02-21T06:03:20;100526.67;;;-2.27;67.71
20228;BME280;12195;55.790;37.572;2024-02-21T06:05:54;100518.11;;;-2.26;67.55
20228;BME280;12195;55.790;37.572;2024-02-21T06:08:27;100522.45;;;-2.20;67.37
20228;BME280;12195;55.790;37.572;2024-02-21T06:11:03;100521.64;;;-2.15;67.57
20228;BME280;12195;55.790;37.572;2024-02-21T06:13:38;100531.94;;;-2.12;67.54
20228;BME280;12195;55.790;37.572;2024-02-21T06:16:13;100535.44;;;-2.07;67.37
20228;BME280;12195;55.790;37.572;2024-02-21T06:18:46;100526.06;;;-2.00;67.19
20228;BME280;12195;55.790;37.572;2024-02-21T06:21:19;100522.69;;;-1.92;67.41
20228;BME280;12195;55.790;37.572;2024-02-21T06:23:52;100522.73;;;-1.87;66.97
20228;BME280;12195;55.790;37.572;2024-02-21T06:26:26;100521.07;;;-1.81;67.04
20228;BME280;12195;55.790;37.572;2024-02-21T06:28:59;100515.95;;;-1.75;66.77
20228;BME280;12195;55.790;37.572;2024-02-21T06:31:37;100523.77;;;-1.66;66.71
20228;BME280;12195;55.790;37.572;2024-02-21T06:34:11;100520.36;;;-1.59;66.68
20228;BME280;12195;55.790;37.572;2024-02-21T06:36:46;100523.84;;;-1.51;66.50
20228;BME280;12195;55.790;37.572;2024-02-21T06:39:20;100529.05;;;-1.42;66.19
20228;BME280;12195;55.790;37.572;2024-02-21T06:41:54;100525.67;;;-1.35;66.21
20228;BME280;12195;55.790;37.572;2024-02-21T06:44:28;100524.87;;;-1.26;66.02
20228;BME280;12195;55.790;37.572;2024-02-21T06:47:01;100530.06;;;-1.19;65.53
20228;BME280;12195;55.790;37.572;2024-02-21T06:49:38;100528.44;;;-1.00;66.38
20228;BME280;12195;55.790;37.572;2024-02-21T06:52:13;100525.83;;;-1.05;65.47
20228;BME280;12195;55.790;37.572;2024-02-21T06:54:49;100516.42;;;-1.00;65.05
20228;BME280;12195;55.790;37.572;2024-02-21T06:57:24;100513.00;;;-0.93;65.12
20228;BME280;12195;55.790;37.572;2024-02-21T06:59:59;100515.64;;;-0.84;64.77
20228;BME280;12195;55.790;37.572;2024-02-21T07:02:35;100513.95;;;-0.76;64.70
20228;BME280;12195;55.790;37.572;2024-02-21T07:05:08;100516.56;;;-0.65;64.18
20228;BME280;12195;55.790;37.572;2024-02-21T07:07:41;100514.84;;;-0.60;63.94
20228;BME280;12195;55.790;37.572;2024-02-21T07:10:15;100513.99;;;-0.52;63.85
20228;BME280;12195;55.790;37.572;2024-02-21T07:12:49;100510.56;;;-0.48;63.42
20228;BME280;12195;55.790;37.572;2024-02-21T07:15:24;100505.43;;;-0.43;62.75
20228;BME280;12195;55.790;37.572;2024-02-21T07:17:59;100502.85;;;-0.43;62.89
20228;BME280;12195;55.790;37.572;2024-02-21T07:20:34;100506.28;;;-0.40;62.73
20228;BME280;12195;55.790;37.572;2024-02-21T07:23:10;100502.87;;;-0.40;62.80
20228;BME280;12195;55.790;37.572;2024-02-21T07:25:49;100504.58;;;-0.33;62.79
20228;BME280;12195;55.790;37.572;2024-02-21T07:28:22;100503.73;;;-0.28;62.32
20228;BME280;12195;55.790;37.572;2024-02-21T07:30:55;100508.06;;;-0.07;63.22
20228;BME280;12195;55.790;37.572;2024-02-21T07:33:29;100503.77;;;-0.10;62.47
20228;BME280;12195;55.790;37.572;2024-02-21T07:36:07;100498.59;;;-0.02;62.20
20228;BME280;12195;55.790;37.572;2024-02-21T07:38:40;100506.34;;;0.07;61.44
20228;BME280;12195;55.790;37.572;2024-02-21T07:41:13;100495.17;;;0.07;61.23
20228;BME280;12195;55.790;37.572;2024-02-21T07:43:47;100507.19;;;0.23;62.15
20228;BME280;12195;55.790;37.572;2024-02-21T07:46:22;100491.72;;;0.21;61.39
20228;BME280;12195;55.790;37.572;2024-02-21T07:48:56;100494.28;;;0.23;61.31
20228;BME280;12195;55.790;37.572;2024-02-21T07:51:30;100497.75;;;0.19;60.79
20228;BME280;12195;55.790;37.572;2024-02-21T07:54:04;100502.03;;;0.15;60.62
20228;BME280;12195;55.790;37.572;2024-02-21T07:56:41;100497.73;;;0.02;60.71
20228;BME280;12195;55.790;37.572;2024-02-21T07:59:17;100493.44;;;-0.11;61.00
20228;BME280;12195;55.790;37.572;2024-02-21T08:01:50;100483.09;;;-0.19;61.44
20228;BME280;12195;55.790;37.572;2024-02-21T08:04:25;100494.30;;;-0.23;61.76
20228;BME280;12195;55.790;37.572;2024-02-21T08:06:58;100486.55;;;-0.24;61.91
20228;BME280;12195;55.790;37.572;2024-02-21T08:09:33;100483.09;;;-0.26;62.03
20228;BME280;12195;55.790;37.572;2024-02-21T08:12:07;100476.22;;;-0.27;62.17
20228;BME280;12195;55.790;37.572;2024-02-21T08:14:40;100476.22;;;-0.27;62.17
20228;BME280;12195;55.790;37.572;2024-02-21T08:17:13;100480.52;;;-0.28;62.15
20228;BME280;12195;55.790;37.572;2024-02-21T08:19:47;100482.26;;;-0.27;62.43
20228;BME280;12195;55.790;37.572;2024-02-21T08:22:20;100477.94;;;-0.19;62.46
20228;BME280;12195;55.790;37.572;2024-02-21T08:24:55;100474.51;;;-0.12;62.51
20228;BME280;12195;55.790;37.572;2024-02-21T08:27:29;100473.66;;;-0.03;62.81
20228;BME280;12195;55.790;37.572;2024-02-21T08:30:02;100482.27;;;0.07;62.25
20228;BME280;12195;55.790;37.572;2024-02-21T08:32:35;100479.67;;;0.16;62.17
20228;BME280;12195;55.790;37.572;2024-02-21T08:35:09;100477.07;;;0.20;62.09
20228;BME280;12195;55.790;37.572;2024-02-21T08:37:41;100488.24;;;0.42;62.52
20228;BME280;12195;55.790;37.572;2024-02-21T08:40:17;100479.62;;;0.46;61.44
20228;BME280;12195;55.790;37.572;2024-02-21T08:42:53;100484.77;;;0.55;61.12
20228;BME280;12195;55.790;37.572;2024-02-21T08:45:27;100481.31;;;0.65;61.29
20228;BME280;12195;55.790;37.572;2024-02-21T08:48:00;100477.83;;;0.81;60.98
20228;BME280;12195;55.790;37.572;2024-02-21T08:50:34;100478.63;;;0.92;60.16
20228;BME280;12195;55.790;37.572;2024-02-21T08:53:08;100472.58;;;0.99;59.63
20228;BME280;12195;55.790;37.572;2024-02-21T08:55:42;100475.12;;;1.06;59.60
20228;BME280;12195;55.790;37.572;2024-02-21T08:58:18;100478.52;;;1.19;59.76
20228;BME280;12195;55.790;37.572;2024-02-21T09:00:53;100471.59;;;1.25;58.85
20228;BME280;12195;55.790;37.572;2024-02-21T09:03:27;100462.14;;;1.17;58.17
20228;BME280;12195;55.790;37.572;2024-02-21T09:06:02;100474.24;;;1.09;58.13
20228;BME280;12195;55.790;37.572;2024-02-21T09:08:36;100467.40;;;1.03;58.13
20228;BME280;12195;55.790;37.572;2024-02-21T09:11:10;100467.40;;;1.05;58.59
20228;BME280;12195;55.790;37.572;2024-02-21T09:13:44;100469.94;;;1.15;58.51
20228;BME280;12195;55.790;37.572;2024-02-21T09:16:17;100452.61;;;1.26;58.96
20228;BME280;12195;55.790;37.572;2024-02-21T09:18:52;100462.81;;;1.53;59.67
20228;BME280;12195;55.790;37.572;2024-02-21T09:21:27;100462.75;;;1.61;57.87
20228;BME280;12195;55.790;37.572;2024-02-21T09:24:03;100454.02;;;1.75;58.27
20228;BME280;12195;55.790;37.572;2024-02-21T09:26:37;100454.73;;;1.94;57.44
20228;BME280;12195;55.790;37.572;2024-02-21T09:29:10;100458.02;;;2.14;57.14
20228;BME280;12195;55.790;37.572;2024-02-21T09:31:45;100456.14;;;2.29;56.65
20228;BME280;12195;55.790;37.572;2024-02-21T09:34:19;100459.50;;;2.39;56.17
20228;BME280;12195;55.790;37.572;2024-02-21T09:36:54;100445.62;;;2.46;56.08
20228;BME280;12195;55.790;37.572;2024-02-21T09:39:29;100446.33;;;2.58;55.90
20228;BME280;12195;55.790;37.572;2024-02-21T09:42:05;100444.49;;;2.69;54.94
20228;BME280;12195;55.790;37.572;2024-02-21T09:44:39;100437.50;;;2.76;55.06
20228;BME280;12195;55.790;37.572;2024-02-21T09:47:28;100437.56;;;2.73;54.70
20228;BME280;12195;55.790;37.572;2024-02-21T09:50:01;100436.73;;;2.68;54.42
20228;BME280;12195;55.790;37.572;2024-02-21T09:52:36;100440.29;;;2.61;54.83
20228;BME280;12195;55.790;37.572;2024-02-21T09:55:10;100437.72;;;2.58;55.28
20228;BME280;12195;55.790;37.572;2024-02-21T09:57:45;100442.02;;;2.59;55.48
20228;BME280;12195;55.790;37.572;2024-02-21T10:00:20;100436.83;;;2.60;54.53
20228;BME280;12195;55.790;37.572;2024-02-21T10:02:56;100428.16;;;2.63;53.87
20228;BME280;12195;55.790;37.572;2024-02-21T10:05:30;100440.42;;;2.49;54.19
20228;BME280;12195;55.790;37.572;2024-02-21T10:08:05;100429.20;;;2.45;54.82
20228;BME280;12195;55.790;37.572;2024-02-21T10:10:45;100438.64;;;2.52;54.14
20228;BME280;12195;55.790;37.572;2024-02-21T10:13:26;100434.26;;;2.57;53.71
20228;BME280;12195;55.790;37.572;2024-02-21T10:16:05;100438.52;;;2.63;53.62
20228;BME280;12195;55.790;37.572;2024-02-21T10:18:39;100435.83;;;2.70;54.38
20228;BME280;12195;55.790;37.572;2024-02-21T10:21:13;100429.73;;;2.74;53.94
20228;BME280;12195;55.790;37.572;2024-02-21T10:23:49;100422.83;;;2.75;53.77
20228;BME280;12195;55.790;37.572;2024-02-21T10:26:24;100429.82;;;2.68;54.33
20228;BME280;12195;55.790;37.572;2024-02-21T10:28:57;100426.47;;;2.59;54.27
20228;BME280;12195;55.790;37.572;2024-02-21T10:31:31;100425.68;;;2.52;54.35
20228;BME280;12195;55.790;37.572;2024-02-21T10:34:06;100420.60;;;2.43;54.53
20228;BME280;12195;55.790;37.572;2024-02-21T10:36:42;100429.22;;;2.44;54.48
20228;BME280;12195;55.790;37.572;2024-02-21T10:39:15;100427.61;;;2.34;54.64
20228;BME280;12195;55.790;37.572;2024-02-21T10:41:52;100419.94;;;2.25;53.91
20228;BME280;12195;55.790;37.572;2024-02-21T10:44:28;100425.13;;;2.22;54.14
20228;BME280;12195;55.790;37.572;2024-02-21T10:47:09;100427.83;;;2.11;54.39
20228;BME280;12195;55.790;37.572;2024-02-21T10:49:45;100420.16;;;2.01;54.51
20228;BME280;12195;55.790;37.572;2024-02-21T10:52:31;100420.20;;;1.95;55.29
20228;BME280;12195;55.790;37.572;2024-02-21T10:55:20;100417.61;;;1.95;55.73
20228;BME280;12195;55.790;37.572;2024-02-21T10:57:52;100422.73;;;2.04;56.11
20228;BME280;12195;55.790;37.572;2024-02-21T11:00:26;100427.03;;;2.05;54.71
20228;BME280;12195;55.790;37.572;2024-02-21T11:03:02;100417.57;;;2.01;54.64
20228;BME280;12195;55.790;37.572;2024-02-21T11:05:36;100417.59;;;1.98;54.84
20228;BME280;12195;55.790;37.572;2024-02-21T11:08:10;100415.89;;;1.95;55.00
20228;BME280;12195;55.790;37.572;2024-02-21T11:10:46;100409.03;;;1.90;55.24
20228;BME280;12195;55.790;37.572;2024-02-21T11:13:29;100416.70;;;1.99;55.54
20228;BME280;12195;55.790;37.572;2024-02-21T11:16:21;100408.89;;;2.06;55.56
20228;BME280;12195;55.790;37.572;2024-02-21T11:18:41;100402.94;;;1.97;54.84
20228;BME280;12195;55.790;37.572;2024-02-21T11:21:15;100397.95;;;1.76;55.53
20228;BME280;12195;55.790;37.572;2024-02-21T11:24:01;100399.77;;;1.62;56.47
20228;BME280;12195;55.790;37.572;2024-02-21T11:26:24;100393.79;;;1.54;56.61
20228;BME280;12195;55.790;37.572;2024-02-21T11:28:59;100396.45;;;1.45;56.30
20228;BME280;12195;55.790;37.572;2024-02-21T11:31:43;100392.17;;;1.39;56.48
20228;BME280;12195;55.790;37.572;2024-02-21T11:34:19;100387.92;;;1.34;56.42
20228;BME280;12195;55.790;37.572;2024-02-21T11:36:52;100395.70;;;1.31;57.20
20228;BME280;12195;55.790;37.572;2024-02-21T11:39:26;100399.12;;;1.33;57.28
20228;BME280;12195;55.790;37.572;2024-02-21T11:42:03;100389.70;;;1.26;57.02
20228;BME280;12195;55.790;37.572;2024-02-21T11:44:38;100394.08;;;1.13;57.23
20228;BME280;12195;55.790;37.572;2024-02-21T11:47:14;100381.16;;;1.12;57.21
20228;BME280;12195;55.790;37.572;2024-02-21T11:49:51;100386.37;;;1.06;57.18
20228;BME280;12195;55.790;37.572;2024-02-21T11:52:31;100381.22;;;1.03;57.84
20228;BME280;12195;55.790;37.572;2024-02-21T11:55:06;100381.22;;;1.03;57.86
20228;BME280;12195;55.790;37.572;2024-02-21T11:57:42;100379.51;;;1.00;57.73
20228;BME280;12195;55.790;37.572;2024-02-21T12:00:18;100378.69;;;0.92;58.17
20228;BME280;12195;55.790;37.572;2024-02-21T12:02:55;100385.57;;;0.95;58.26
20228;BME280;12195;55.790;37.572;2024-02-21T12:05:32;100377.80;;;0.98;57.54
20228;BME280;12195;55.790;37.572;2024-02-21T12:08:06;100376.94;;;0.97;57.64
20228;BME280;12195;55.790;37.572;2024-02-21T12:10:42;100370.94;;;0.91;57.52
20228;BME280;12195;55.790;37.572;2024-02-21T12:13:16;100374.45;;;0.81;57.74
20228;BME280;12195;55.790;37.572;2024-02-21T12:15:49;100377.05;;;0.73;57.73
20228;BME280;12195;55.790;37.572;2024-02-21T12:18:25;100364.19;;;0.64;58.10
20228;BME280;12195;55.790;37.572;2024-02-21T12:20:59;100367.65;;;0.59;58.27
20228;BME280;12195;55.790;37.572;2024-02-21T12:23:33;100366.81;;;0.58;58.97
20228;BME280;12195;55.790;37.572;2024-02-21T12:26:06;100360.77;;;0.58;58.72
20228;BME280;12195;55.790;37.572;2024-02-21T12:28:41;100359.90;;;0.60;58.48
20228;BME280;12195;55.790;37.572;2024-02-21T12:31:15;100353.85;;;0.63;58.13
20228;BME280;12195;55.790;37.572;2024-02-21T12:33:49;100355.60;;;0.58;58.32
20228;BME280;12195;55.790;37.572;2024-02-21T12:36:24;100354.77;;;0.53;58.65
20228;BME280;12195;55.790;37.572;2024-02-21T12:38:57;100355.61;;;0.55;58.60
20228;BME280;12195;55.790;37.572;2024-02-21T12:41:30;100353.91;;;0.49;58.50
20228;BME280;12195;55.790;37.572;2024-02-21T12:44:08;100352.20;;;0.47;58.82
20228;BME280;12195;55.790;37.572;2024-02-21T12:46:43;100344.45;;;0.47;58.71
20228;BME280;12195;55.790;37.572;2024-02-21T12:49:35;100346.20;;;0.43;58.58
20228;BME280;12195;55.790;37.572;2024-02-21T12:52:09;100358.28;;;0.38;58.33
20228;BME280;12195;55.790;37.572;2024-02-21T12:54:48;100359.15;;;0.36;59.54
20228;BME280;12195;55.790;37.572;2024-02-21T12:57:24;100352.28;;;0.27;59.10
20228;BME280;12195;55.790;37.572;2024-02-21T12:59:59;100356.64;;;0.15;59.43
20228;BME280;12195;55.790;37.572;2024-02-21T13:02:33;100356.63;;;0.04;60.39
20228;BME280;12195;55.790;37.572;2024-02-21T13:05:08;100362.69;;;-0.05;60.52
20228;BME280;12195;55.790;37.572;2024-02-21T13:07:42;100366.13;;;-0.09;60.56
20228;BME280;12195;55.790;37.572;2024-02-21T13:10:16;100362.70;;;-0.18;60.64
20228;BME280;12195;55.790;37.572;2024-02-21T13:12:50;100367.88;;;-0.29;61.03
20228;BME280;12195;55.790;37.572;2024-02-21T13:15:27;100351.55;;;-0.37;61.14
20228;BME280;12195;55.790;37.572;2024-02-21T13:18:00;100361.01;;;-0.42;61.25